Time;durP1;ratioP1;P1;durP2;ratioP2;P2;SDS_P1;SDS_P2;PMS_P1;PMS_P2;Temp;Humidity;BMP_temperature;BMP_pressure;BME280_temperature;BME280_humidity;BME280_pressure;Samples;Min_cycle;Max_cycle;Signal;HPM_P1;HPM_P2
2023/07/21 00:00:18;;;;;;;1.10;1.10;;;23.70;70.20;;;;;;5069001;28;43395;-69
2023/07/21 00:02:49;;;;;;;1.00;1.00;;;23.60;70.50;;;;;;5065520;28;43613;-70
2023/07/21 00:05:18;;;;;;;1.20;1.20;;;23.60;70.60;;;;;;5078651;28;43395;-70
2023/07/21 00:07:47;;;;;;;1.00;1.00;;;23.60;70.70;;;;;;5054848;28;43295;-69
2023/07/21 00:10:17;;;;;;;1.00;1.00;;;23.60;70.50;;;;;;5069617;28;43383;-70
2023/07/21 00:12:46;;;;;;;0.90;0.90;;;23.60;70.70;;;;;;5086689;28;43809;-69
2023/07/21 00:15:17;;;;;;;1.10;1.10;;;23.50;70.80;;;;;;5069759;28;43891;-70
2023/07/21 00:17:46;;;;;;;1.00;1.00;;;23.60;70.70;;;;;;5057720;28;43348;-69
2023/07/21 00:20:21;;;;;;;1.00;1.00;;;23.70;70.40;;;;;;5072332;28;43538;-69
2023/07/21 00:22:51;;;;;;;1.07;1.07;;;23.80;70.00;;;;;;5065945;28;45492;-69
2023/07/21 00:25:20;;;;;;;1.00;1.00;;;23.90;69.80;;;;;;5077817;28;43374;-69
2023/07/21 00:27:48;;;;;;;1.10;1.10;;;23.90;69.70;;;;;;5086479;28;43413;-69
2023/07/21 00:30:18;;;;;;;1.10;1.10;;;23.80;69.60;;;;;;5088322;28;43390;-69
2023/07/21 00:32:46;;;;;;;0.90;0.90;;;23.70;69.90;;;;;;5084218;28;43608;-69
2023/07/21 00:35:14;;;;;;;1.00;1.00;;;23.70;70.00;;;;;;5063800;28;44702;-69
2023/07/21 00:37:42;;;;;;;1.00;1.00;;;23.70;70.00;;;;;;5075421;28;43509;-69
2023/07/21 00:40:18;;;;;;;0.90;0.90;;;23.70;70.10;;;;;;5062064;28;43562;-69
2023/07/21 00:42:48;;;;;;;0.90;0.90;;;23.60;70.40;;;;;;5066537;28;45681;-69
2023/07/21 00:45:16;;;;;;;1.00;1.00;;;23.60;70.60;;;;;;5081372;28;43922;-69
2023/07/21 00:47:44;;;;;;;1.00;1.00;;;23.60;70.40;;;;;;5082861;28;43408;-69
2023/07/21 00:50:14;;;;;;;1.00;1.00;;;23.60;70.40;;;;;;5063244;28;43537;-71
2023/07/21 00:52:42;;;;;;;1.00;1.00;;;23.60;70.30;;;;;;5072970;28;43555;-70
2023/07/21 00:55:10;;;;;;;1.20;1.20;;;23.60;70.90;;;;;;5080976;28;43417;-68
2023/07/21 00:57:38;;;;;;;0.90;0.90;;;23.60;70.70;;;;;;5070716;28;43593;-70
2023/07/21 01:00:12;;;;;;;1.10;1.10;;;23.60;70.30;;;;;;5061897;28;43530;-72
2023/07/21 01:02:43;;;;;;;1.10;0.90;;;23.80;70.10;;;;;;5071774;28;43783;-73
2023/07/21 01:05:12;;;;;;;1.00;1.00;;;23.90;69.70;;;;;;5059040;28;43657;-74
2023/07/21 01:07:40;;;;;;;1.00;1.00;;;23.90;69.50;;;;;;5069503;28;43424;-73
2023/07/21 01:10:09;;;;;;;1.00;1.00;;;23.90;69.40;;;;;;5081877;28;43381;-73
2023/07/21 01:12:39;;;;;;;1.13;1.13;;;23.90;69.50;;;;;;5065486;28;43842;-74
2023/07/21 01:15:10;;;;;;;1.00;1.00;;;23.80;69.80;;;;;;5081916;28;43407;-74
2023/07/21 01:17:38;;;;;;;0.80;0.80;;;23.70;69.70;;;;;;5066460;28;43386;-73
2023/07/21 01:20:08;;;;;;;0.97;0.97;;;23.70;69.80;;;;;;5067662;28;43865;-73
2023/07/21 01:22:37;;;;;;;1.10;1.10;;;23.70;69.90;;;;;;5057036;28;45063;-73
2023/07/21 01:25:11;;;;;;;1.00;1.00;;;23.60;70.30;;;;;;5057295;28;43377;-73
2023/07/21 01:27:40;;;;;;;1.00;1.00;;;23.60;70.30;;;;;;5053279;28;43438;-73
2023/07/21 01:30:10;;;;;;;0.90;0.90;;;23.60;70.30;;;;;;5081227;28;43492;-73
2023/07/21 01:32:38;;;;;;;1.00;1.00;;;23.60;70.30;;;;;;5064195;28;46077;-74
2023/07/21 01:35:11;;;;;;;0.90;0.90;;;23.60;70.70;;;;;;5080864;28;43553;-74
2023/07/21 01:37:40;;;;;;;1.03;1.03;;;23.60;70.80;;;;;;5086066;28;44012;-72
2023/07/21 01:40:11;;;;;;;1.07;1.07;;;23.60;70.40;;;;;;5072791;28;43484;-72
2023/07/21 01:42:39;;;;;;;0.90;0.90;;;23.70;70.10;;;;;;5077947;28;43980;-73
2023/07/21 01:45:08;;;;;;;1.10;1.10;;;23.80;69.70;;;;;;5069125;28;44690;-72
2023/07/21 01:47:36;;;;;;;1.10;1.10;;;23.90;69.50;;;;;;5071197;28;43345;-73
2023/07/21 01:50:06;;;;;;;1.10;1.10;;;23.90;69.50;;;;;;5074475;28;43442;-73
2023/07/21 01:52:34;;;;;;;1.07;1.07;;;23.80;69.40;;;;;;5086171;28;43882;-73
2023/07/21 01:55:05;;;;;;;1.20;1.20;;;23.70;69.70;;;;;;5083302;28;43402;-71
2023/07/21 01:57:39;;;;;;;1.00;1.00;;;23.70;70.00;;;;;;5083632;28;43359;-72
2023/07/21 02:00:10;;;;;;;0.90;0.90;;;23.70;69.90;;;;;;5084940;28;43424;-73
2023/07/21 02:02:47;;;;;;;0.97;0.97;;;23.70;70.70;;;;;;5067717;28;45350;-73
2023/07/21 02:05:18;;;;;;;1.10;1.10;;;23.60;69.90;;;;;;5068603;28;44508;-73
2023/07/21 02:07:46;;;;;;;1.00;1.00;;;23.60;70.50;;;;;;5072723;28;43407;-72
2023/07/21 02:10:14;;;;;;;0.90;0.90;;;23.60;70.40;;;;;;5083058;28;43540;-74
2023/07/21 02:12:49;;;;;;;0.90;0.90;;;23.60;70.40;;;;;;5071749;28;45993;-73
2023/07/21 02:15:17;;;;;;;0.90;0.90;;;23.60;70.30;;;;;;5069619;28;45935;-74
2023/07/21 02:17:48;;;;;;;1.17;1.17;;;23.50;70.70;;;;;;5070945;28;43463;-74
2023/07/21 02:20:16;;;;;;;0.83;0.83;;;23.60;70.50;;;;;;5080508;28;43447;-74
2023/07/21 02:22:44;;;;;;;1.07;1.07;;;23.70;70.40;;;;;;5083815;28;43888;-74
2023/07/21 02:25:13;;;;;;;1.00;1.00;;;23.70;69.90;;;;;;5069308;28;45592;-73
2023/07/21 02:27:41;;;;;;;1.50;1.10;;;23.80;69.60;;;;;;5070771;28;43463;-74
2023/07/21 02:30:11;;;;;;;0.90;0.90;;;23.80;69.50;;;;;;5070611;28;43876;-74
2023/07/21 02:32:39;;;;;;;1.10;1.10;;;23.80;69.40;;;;;;5043211;28;45396;-74
2023/07/21 02:35:08;;;;;;;1.10;1.10;;;23.70;69.60;;;;;;5069097;28;44796;-73
2023/07/21 02:37:37;;;;;;;0.90;0.90;;;23.70;70.00;;;;;;5061772;28;43396;-74
2023/07/21 02:40:06;;;;;;;0.80;0.80;;;23.70;70.00;;;;;;5058400;28;44158;-74
2023/07/21 02:42:35;;;;;;;1.00;1.00;;;23.70;69.90;;;;;;5088199;28;43810;-73
2023/07/21 02:45:04;;;;;;;1.00;1.00;;;23.60;70.10;;;;;;5074741;28;43398;-73
2023/07/21 02:47:34;;;;;;;1.00;1.00;;;23.60;70.40;;;;;;5064391;28;43444;-73
2023/07/21 02:50:03;;;;;;;1.00;1.00;;;23.60;70.30;;;;;;5047260;28;43396;-73
2023/07/21 02:52:31;;;;;;;1.00;1.00;;;23.60;70.30;;;;;;5056038;28;45772;-74
2023/07/21 02:55:00;;;;;;;0.90;0.90;;;23.60;70.30;;;;;;5071195;28;43487;-74
2023/07/21 02:57:28;;;;;;;1.03;1.03;;;23.50;70.60;;;;;;5070560;28;43415;-73
2023/07/21 02:59:56;;;;;;;1.07;1.07;;;23.50;70.60;;;;;;5069329;28;43536;-73
2023/07/21 03:02:34;;;;;;;0.90;0.90;;;23.60;70.30;;;;;;5067547;28;44028;-73
2023/07/21 03:05:04;;;;;;;1.00;1.00;;;23.70;70.10;;;;;;5059236;28;43959;-72
2023/07/21 03:07:33;;;;;;;1.00;1.00;;;23.70;69.80;;;;;;5069698;28;43408;-73
2023/07/21 03:10:06;;;;;;;2.40;1.20;;;23.70;69.70;;;;;;5070138;28;43951;-74
2023/07/21 03:12:36;;;;;;;0.90;0.90;;;23.70;70.10;;;;;;5068835;28;46001;-73
2023/07/21 03:15:17;;;;;;;1.10;1.10;;;23.70;70.10;;;;;;5069111;28;45026;-73
2023/07/21 03:17:56;;;;;;;1.00;1.00;;;23.70;69.90;;;;;;5066883;28;43430;-72
2023/07/21 03:20:25;;;;;;;1.00;1.00;;;23.70;69.90;;;;;;5064704;28;43479;-73
2023/07/21 03:22:53;;;;;;;1.07;1.07;;;23.60;70.10;;;;;;5067044;28;46017;-75
2023/07/21 03:25:21;;;;;;;0.90;0.90;;;23.60;70.30;;;;;;5070941;28;43463;-74
2023/07/21 03:27:49;;;;;;;0.80;0.80;;;23.60;70.10;;;;;;5079440;28;43840;-74
2023/07/21 03:30:21;;;;;;;0.90;0.90;;;23.60;70.20;;;;;;5071794;28;44061;-74
2023/07/21 03:32:59;;;;;;;1.00;1.00;;;23.60;70.40;;;;;;5069813;28;44182;-73
2023/07/21 03:35:28;;;;;;;1.00;1.00;;;23.50;70.60;;;;;;5071135;28;45153;-74
2023/07/21 03:37:57;;;;;;;0.90;0.90;;;23.60;70.40;;;;;;5070439;28;43385;-74
2023/07/21 03:40:26;;;;;;;0.90;0.90;;;23.70;70.20;;;;;;5067656;28;43441;-73
2023/07/21 03:42:54;;;;;;;0.73;0.73;;;23.70;69.70;;;;;;5067401;28;45374;-73
2023/07/21 03:45:23;;;;;;;0.90;0.90;;;23.80;69.40;;;;;;5088180;28;44575;-73
2023/07/21 03:47:51;;;;;;;1.00;1.00;;;23.80;69.30;;;;;;5070962;28;44052;-73
2023/07/21 03:50:20;;;;;;;1.00;1.00;;;23.80;69.40;;;;;;5070499;28;43555;-73
2023/07/21 03:52:48;;;;;;;1.53;1.43;;;23.70;69.60;;;;;;5082770;28;43965;-73
2023/07/21 03:55:20;;;;;;;1.30;1.30;;;23.70;70.60;;;;;;5070760;28;44953;-73
2023/07/21 03:57:48;;;;;;;1.80;1.70;;;23.70;69.80;;;;;;5067994;28;43984;-74
2023/07/21 04:00:17;;;;;;;3.27;2.00;;;23.70;69.90;;;;;;5066604;28;43505;-72
2023/07/21 04:02:45;;;;;;;6.20;2.50;;;23.60;69.70;;;;;;5065129;28;45750;-74
2023/07/21 04:05:13;;;;;;;6.57;2.80;;;23.60;70.30;;;;;;5063143;28;45150;-74
2023/07/21 04:07:42;;;;;;;7.23;2.90;;;23.60;70.30;;;;;;5067626;28;43447;-73
2023/07/21 04:10:10;;;;;;;7.20;3.20;;;23.60;70.20;;;;;;5064177;28;43418;-73
2023/07/21 04:12:38;;;;;;;8.37;3.73;;;23.60;70.00;;;;;;5065669;28;43621;-73
2023/07/21 04:15:08;;;;;;;10.60;3.60;;;23.50;70.30;;;;;;5057767;28;44377;-73
2023/07/21 04:17:36;;;;;;;8.53;3.90;;;23.50;70.50;;;;;;5063611;28;43388;-73
2023/07/21 04:20:06;;;;;;;7.80;3.70;;;23.60;70.20;;;;;;5077291;28;43336;-74
2023/07/21 04:22:34;;;;;;;8.77;3.87;;;23.70;69.90;;;;;;5065535;28;45778;-73
2023/07/21 04:25:04;;;;;;;8.17;3.97;;;23.80;69.50;;;;;;5049289;28;46215;-73
2023/07/21 04:27:33;;;;;;;9.17;4.00;;;23.90;69.20;;;;;;5070377;28;43902;-73
2023/07/21 04:30:01;;;;;;;14.40;4.10;;;23.90;69.10;;;;;;5067699;28;43499;-73
2023/07/21 04:32:31;;;;;;;17.13;4.40;;;23.80;69.10;;;;;;5069784;28;45770;-73
2023/07/21 04:35:03;;;;;;;13.80;4.40;;;23.70;69.40;;;;;;5064254;28;44910;-75
2023/07/21 04:37:34;;;;;;;12.43;4.40;;;23.70;69.60;;;;;;5063662;28;43534;-74
2023/07/21 04:40:06;;;;;;;11.00;4.57;;;23.70;69.70;;;;;;5053737;28;43519;-73
2023/07/21 04:42:36;;;;;;;16.53;5.13;;;23.70;69.50;;;;;;5054850;28;44710;-73
2023/07/21 04:45:11;;;;;;;11.20;4.47;;;23.60;69.80;;;;;;5066859;28;45014;-73
2023/07/21 04:47:49;;;;;;;9.30;4.30;;;23.60;70.10;;;;;;5057954;28;44012;-73
2023/07/21 04:50:21;;;;;;;7.83;3.50;;;23.60;70.00;;;;;;5066146;28;44009;-73
2023/07/21 04:52:49;;;;;;;8.57;3.87;;;23.60;69.90;;;;;;5081872;28;43603;-74
2023/07/21 04:55:19;;;;;;;9.27;4.37;;;23.60;70.20;;;;;;5065862;28;44634;-73
2023/07/21 04:57:47;;;;;;;12.43;4.57;;;23.60;70.40;;;;;;5067928;28;43943;-74
2023/07/21 05:00:16;;;;;;;11.27;4.13;;;23.60;70.10;;;;;;5070079;28;43416;-74
2023/07/21 05:02:44;;;;;;;8.00;3.77;;;23.70;69.80;;;;;;5066101;28;44114;-73
2023/07/21 05:05:12;;;;;;;8.90;4.00;;;23.80;69.40;;;;;;5079748;28;43495;-74
2023/07/21 05:07:48;;;;;;;6.37;3.83;;;23.90;69.20;;;;;;5066786;28;43336;-74
2023/07/21 05:10:17;;;;;;;7.47;4.13;;;23.80;69.10;;;;;;5084681;28;43483;-75
2023/07/21 05:12:46;;;;;;;10.13;4.33;;;23.80;69.10;;;;;;5070864;28;46179;-74
2023/07/21 05:15:35;;;;;;;8.33;4.03;;;23.70;69.50;;;;;;5080801;28;43386;-74
2023/07/21 05:18:19;;;;;;;5.47;3.83;;;23.70;69.60;;;;;;5070866;28;43373;-71
2023/07/21 05:21:08;;;;;;;6.33;3.63;;;23.70;69.70;;;;;;5066427;28;43960;-73
2023/07/21 05:23:43;;;;;;;7.43;4.00;;;23.60;69.50;;;;;;5066464;28;44732;-73
2023/07/21 05:26:15;;;;;;;6.97;3.93;;;23.60;70.10;;;;;;5070163;28;44033;-73
2023/07/21 05:28:46;;;;;;;6.20;3.60;;;23.60;70.10;;;;;;5072370;28;43525;-74
2023/07/21 05:31:15;;;;;;;9.90;4.17;;;23.60;69.90;;;;;;5070143;28;43603;-75
2023/07/21 05:34:00;;;;;;;7.43;4.23;;;23.70;69.70;;;;;;5066204;28;44908;-73
2023/07/21 05:36:29;;;;;;;4.17;3.60;;;23.70;69.50;;;;;;5066839;28;44018;-72
2023/07/21 05:38:57;;;;;;;4.87;3.70;;;23.70;69.60;;;;;;5068439;28;43419;-73
2023/07/21 05:41:27;;;;;;;6.17;3.60;;;23.70;69.90;;;;;;5069683;28;44338;-72
2023/07/21 05:43:58;;;;;;;7.23;4.00;;;23.70;69.70;;;;;;5072763;28;44202;-75
2023/07/21 05:46:27;;;;;;;6.77;3.27;;;23.70;69.70;;;;;;5070068;28;44703;-74
2023/07/21 05:49:03;;;;;;;5.00;3.50;;;23.60;69.60;;;;;;5071276;28;43387;-74
2023/07/21 05:51:31;;;;;;;5.10;3.50;;;23.60;70.10;;;;;;5068842;28;43465;-74
2023/07/21 05:54:10;;;;;;;6.07;3.67;;;23.60;70.10;;;;;;5072745;28;44028;-74
2023/07/21 05:56:39;;;;;;;4.60;3.47;;;23.60;70.00;;;;;;5083925;28;43582;-74
2023/07/21 05:59:15;;;;;;;5.57;3.50;;;23.60;70.00;;;;;;5071522;28;43411;-74
2023/07/21 06:01:43;;;;;;;4.50;3.50;;;23.50;70.30;;;;;;5073120;28;43519;-74
2023/07/21 06:04:11;;;;;;;4.53;3.37;;;23.50;70.30;;;;;;5072247;28;45721;-74
2023/07/21 06:06:43;;;;;;;4.80;3.70;;;23.50;70.30;;;;;;5072122;28;44995;-73
2023/07/21 06:09:18;;;;;;;6.50;3.80;;;23.50;70.10;;;;;;5069311;28;43537;-73
2023/07/21 06:12:05;;;;;;;4.70;3.37;;;23.50;70.50;;;;;;5066939;28;43964;-73
2023/07/21 06:14:54;;;;;;;4.33;3.37;;;23.50;70.60;;;;;;5072323;28;45667;-73
2023/07/21 06:17:42;;;;;;;5.27;3.50;;;23.60;70.20;;;;;;5071949;28;43491;-73
2023/07/21 06:20:12;;;;;;;3.43;3.13;;;23.70;69.80;;;;;;5070555;28;43427;-75
2023/07/21 06:22:40;;;;;;;4.73;3.33;;;23.80;69.40;;;;;;5071672;28;43520;-74
2023/07/21 06:25:09;;;;;;;3.30;3.00;;;23.80;69.10;;;;;;5069800;28;44484;-73
2023/07/21 06:27:40;;;;;;;3.63;3.30;;;23.80;69.20;;;;;;5072136;28;43408;-74
2023/07/21 06:30:13;;;;;;;3.20;2.87;;;23.70;69.30;;;;;;5066585;28;43440;-74
2023/07/21 06:32:45;;;;;;;3.77;3.03;;;23.70;69.70;;;;;;5072829;28;43889;-74
2023/07/21 06:35:33;;;;;;;4.77;2.80;;;23.70;69.70;;;;;;5072071;28;46077;-73
2023/07/21 06:38:26;;;;;;;3.20;2.90;;;23.60;69.70;;;;;;5068595;28;43411;-72
2023/07/21 06:41:08;;;;;;;3.57;3.00;;;23.60;69.80;;;;;;5071578;28;43387;-74
2023/07/21 06:43:45;;;;;;;4.37;2.93;;;23.60;70.30;;;;;;5081156;28;43442;-73
2023/07/21 06:46:26;;;;;;;3.37;3.10;;;23.60;70.20;;;;;;5069094;28;44080;-73
2023/07/21 06:49:08;;;;;;;3.27;2.80;;;23.50;70.00;;;;;;5070955;28;43782;-73
2023/07/21 06:51:45;;;;;;;3.30;3.00;;;23.50;70.60;;;;;;5068769;28;43459;-73
2023/07/21 06:54:13;;;;;;;3.17;2.87;;;23.50;70.50;;;;;;5069587;28;43507;-74
2023/07/21 06:56:41;;;;;;;2.60;2.50;;;23.50;70.30;;;;;;5069182;28;43913;-74
2023/07/21 06:59:09;;;;;;;3.10;2.80;;;23.60;70.00;;;;;;5080415;28;43844;-74
2023/07/21 07:01:38;;;;;;;3.00;2.70;;;23.70;69.60;;;;;;5071835;28;43464;-73
2023/07/21 07:04:06;;;;;;;3.10;2.80;;;23.80;69.30;;;;;;5080928;28;43481;-74
2023/07/21 07:06:35;;;;;;;2.93;2.73;;;23.80;69.10;;;;;;5067738;28;45683;-73
2023/07/21 07:09:03;;;;;;;3.20;2.90;;;23.80;69.00;;;;;;5085611;28;43500;-72
2023/07/21 07:11:33;;;;;;;2.73;2.50;;;23.80;69.20;;;;;;5080545;28;43412;-74
2023/07/21 07:14:01;;;;;;;3.23;2.93;;;23.70;69.50;;;;;;5074526;28;43420;-73
2023/07/21 07:16:31;;;;;;;3.00;2.80;;;23.70;69.50;;;;;;5049107;28;45667;-73
2023/07/21 07:19:01;;;;;;;3.00;2.80;;;23.70;69.60;;;;;;5067797;28;43551;-72
2023/07/21 07:21:29;;;;;;;2.73;2.53;;;23.60;69.60;;;;;;5081195;28;43415;-74
2023/07/21 07:23:57;;;;;;;2.97;2.73;;;23.60;70.00;;;;;;5073327;28;43340;-74
2023/07/21 07:26:26;;;;;;;3.03;2.67;;;23.50;70.00;;;;;;5077039;28;43607;-73
2023/07/21 07:28:54;;;;;;;2.90;2.70;;;23.50;70.00;;;;;;5086175;28;43364;-74
2023/07/21 07:31:22;;;;;;;2.97;2.77;;;23.50;69.90;;;;;;5082720;28;43358;-73
2023/07/21 07:33:50;;;;;;;2.77;2.57;;;23.50;70.00;;;;;;5084718;27;43498;-73
2023/07/21 07:36:20;;;;;;;2.90;2.70;;;23.50;70.50;;;;;;5065881;28;46873;-74
2023/07/21 07:38:48;;;;;;;2.73;2.53;;;23.50;70.30;;;;;;5083432;28;43446;-73
2023/07/21 07:41:17;;;;;;;3.47;2.90;;;23.40;70.30;;;;;;5065702;28;43390;-74
2023/07/21 07:43:45;;;;;;;2.77;2.57;;;23.40;70.00;;;;;;5056361;28;43416;-73
2023/07/21 07:46:13;;;;;;;2.40;2.30;;;23.40;70.60;;;;;;5084807;28;43621;-74
2023/07/21 07:48:41;;;;;;;2.47;2.37;;;23.40;70.50;;;;;;5086436;28;43451;-72
2023/07/21 07:51:09;;;;;;;2.43;2.33;;;23.50;70.20;;;;;;5041564;28;43485;-73
2023/07/21 07:53:38;;;;;;;2.80;2.60;;;23.60;69.90;;;;;;5072855;28;43491;-73
2023/07/21 07:56:06;;;;;;;2.47;2.37;;;23.70;69.60;;;;;;5084788;28;43840;-73
2023/07/21 07:58:34;;;;;;;2.50;2.40;;;23.70;69.30;;;;;;5081013;28;43761;-74
2023/07/21 08:01:03;;;;;;;2.13;2.07;;;23.70;69.20;;;;;;5083821;28;43395;-74
2023/07/21 08:03:33;;;;;;;2.37;2.27;;;23.70;69.30;;;;;;5088288;28;44093;-73
2023/07/21 08:06:01;;;;;;;2.60;2.40;;;23.70;69.60;;;;;;5035383;28;43806;-73
2023/07/21 08:08:29;;;;;;;2.20;2.10;;;23.60;69.80;;;;;;5056282;28;44268;-74
2023/07/21 08:10:58;;;;;;;2.60;2.50;;;23.60;69.80;;;;;;5063928;28;43439;-73
2023/07/21 08:13:26;;;;;;;2.20;2.10;;;23.60;69.70;;;;;;5055887;28;43401;-73
2023/07/21 08:15:54;;;;;;;2.17;2.10;;;23.50;69.60;;;;;;5050883;28;43613;-73
2023/07/21 08:18:22;;;;;;;2.53;2.40;;;23.50;70.30;;;;;;5042961;28;43396;-74
2023/07/21 08:20:51;;;;;;;2.30;2.20;;;23.50;70.00;;;;;;5028974;28;43965;-74
2023/07/21 08:23:19;;;;;;;2.67;2.57;;;23.60;69.70;;;;;;5054990;28;43357;-73
2023/07/21 08:25:58;;;;;;;2.33;2.23;;;23.70;69.60;;;;;;5056184;28;43593;-73
2023/07/21 08:28:26;;;;;;;2.30;2.20;;;23.70;69.20;;;;;;5047275;28;44919;-73
2023/07/21 08:30:54;;;;;;;2.23;2.13;;;23.70;69.30;;;;;;5048879;28;43531;-73
2023/07/21 08:33:27;;;;;;;2.30;2.20;;;23.60;69.30;;;;;;5023670;28;43545;-73
2023/07/21 08:35:55;;;;;;;1.87;1.77;;;23.60;69.80;;;;;;5045646;28;43613;-73
2023/07/21 08:38:23;;;;;;;2.60;2.50;;;23.60;69.90;;;;;;5039141;28;44540;-73
2023/07/21 08:40:52;;;;;;;2.20;2.10;;;23.50;69.80;;;;;;5057270;28;43424;-73
2023/07/21 08:43:23;;;;;;;2.23;2.13;;;23.50;69.80;;;;;;5064487;28;43439;-73
2023/07/21 08:45:51;;;;;;;2.20;2.10;;;23.50;70.20;;;;;;5032516;28;45867;-76
2023/07/21 08:48:20;;;;;;;2.30;2.20;;;23.50;70.30;;;;;;5029018;28;44921;-74
2023/07/21 08:50:49;;;;;;;2.40;2.30;;;23.50;70.10;;;;;;5061853;28;43424;-73
2023/07/21 08:53:17;;;;;;;2.20;2.10;;;23.50;69.80;;;;;;5044496;28;43894;-73
2023/07/21 08:55:45;;;;;;;2.23;2.13;;;23.60;69.80;;;;;;5027241;28;45382;-73
2023/07/21 08:58:13;;;;;;;2.23;2.13;;;23.50;69.80;;;;;;5047666;28;44733;-72
2023/07/21 09:00:42;;;;;;;1.80;1.80;;;23.50;70.00;;;;;;5066744;28;43850;-72
2023/07/21 09:03:10;;;;;;;2.10;2.00;;;23.50;69.70;;;;;;5050197;28;43387;-73
2023/07/21 09:05:40;;;;;;;1.93;1.83;;;23.50;69.90;;;;;;5064758;28;43609;-75
2023/07/21 09:08:19;;;;;;;2.20;2.10;;;23.50;69.70;;;;;;5077030;28;43995;-72
2023/07/21 09:10:47;;;;;;;2.03;1.93;;;23.50;70.40;;;;;;5067951;28;44135;-74
2023/07/21 09:13:15;;;;;;;2.30;2.20;;;23.50;70.90;;;;;;5074702;28;43356;-73
2023/07/21 09:15:52;;;;;;;2.40;2.30;;;23.50;69.90;;;;;;5081983;28;43612;-74
2023/07/21 09:18:25;;;;;;;2.13;2.03;;;23.60;69.80;;;;;;5068243;28;43415;-73
2023/07/21 09:20:53;;;;;;;1.90;1.80;;;23.60;69.70;;;;;;5074523;28;43356;-74
2023/07/21 09:23:21;;;;;;;1.97;1.97;;;23.60;69.70;;;;;;5066021;28;43936;-73
2023/07/21 09:25:50;;;;;;;1.90;1.90;;;23.50;69.90;;;;;;5060277;28;44614;-74
2023/07/21 09:28:18;;;;;;;2.00;1.90;;;23.50;69.70;;;;;;5076432;28;43427;-73
2023/07/21 09:30:52;;;;;;;1.77;1.77;;;23.50;69.70;;;;;;5074583;28;43477;-73
2023/07/21 09:33:24;;;;;;;1.83;1.83;;;23.50;69.60;;;;;;5066182;28;43391;-72
2023/07/21 09:36:04;;;;;;;1.87;1.87;;;23.50;71.00;;;;;;5076951;28;44427;-73
2023/07/21 09:38:32;;;;;;;1.90;1.80;;;23.50;70.20;;;;;;5074083;28;43367;-71
2023/07/21 09:41:01;;;;;;;1.70;1.70;;;23.40;70.10;;;;;;5067788;28;43421;-75
2023/07/21 09:43:29;;;;;;;1.70;1.70;;;23.40;69.90;;;;;;5077552;28;43411;-73
2023/07/21 09:46:00;;;;;;;1.90;1.80;;;23.40;70.50;;;;;;5078888;28;43609;-73
2023/07/21 09:48:41;;;;;;;2.00;1.90;;;23.40;70.50;;;;;;5064165;28;44775;-73
2023/07/21 09:51:10;;;;;;;2.00;1.90;;;23.50;70.20;;;;;;5074826;28;43425;-73
2023/07/21 09:53:39;;;;;;;1.93;1.90;;;23.60;69.80;;;;;;5077614;28;43355;-73
2023/07/21 09:56:08;;;;;;;1.80;1.80;;;23.70;69.60;;;;;;5078122;28;43604;-73
2023/07/21 09:58:37;;;;;;;2.00;2.00;;;23.70;69.30;;;;;;5067983;28;44435;-72
2023/07/21 10:01:06;;;;;;;2.00;1.90;;;23.70;69.20;;;;;;5081256;28;44244;-72
2023/07/21 10:03:35;;;;;;;1.90;1.90;;;23.70;69.30;;;;;;5066166;28;43458;-73
2023/07/21 10:06:03;;;;;;;2.10;2.00;;;23.60;69.60;;;;;;5064214;28;43607;-74
2023/07/21 10:08:33;;;;;;;1.80;1.70;;;23.60;69.70;;;;;;5061843;28;44907;-74
2023/07/21 10:11:01;;;;;;;1.83;1.83;;;23.60;69.80;;;;;;5074762;28;43460;-74
2023/07/21 10:13:31;;;;;;;1.80;1.80;;;23.50;69.60;;;;;;5047876;28;44225;-73
2023/07/21 10:16:06;;;;;;;1.63;1.63;;;23.50;70.10;;;;;;5067373;28;43689;-73
2023/07/21 10:18:36;;;;;;;1.60;1.60;;;23.50;70.00;;;;;;5071349;28;43445;-78
2023/07/21 10:21:05;;;;;;;1.77;1.77;;;23.50;70.00;;;;;;5079225;28;43375;-73
2023/07/21 10:23:39;;;;;;;1.90;1.90;;;23.40;69.80;;;;;;5055939;28;43559;-73
2023/07/21 10:26:07;;;;;;;1.67;1.67;;;23.40;70.30;;;;;;5081098;28;43944;-73
2023/07/21 10:28:39;;;;;;;1.80;1.80;;;23.40;70.40;;;;;;5067953;28;45133;-73
2023/07/21 10:31:36;;;;;;;1.90;1.90;;;23.50;70.10;;;;;;5083271;28;43338;-73
2023/07/21 10:34:09;;;;;;;1.53;1.53;;;23.50;69.70;;;;;;5074160;28;43727;-73
2023/07/21 10:36:41;;;;;;;1.70;1.70;;;23.60;69.70;;;;;;5077780;28;43916;-71
2023/07/21 10:39:10;;;;;;;1.83;1.83;;;23.60;69.70;;;;;;5078728;28;43948;-73
2023/07/21 10:41:39;;;;;;;1.60;1.60;;;23.50;69.90;;;;;;5054649;28;44129;-73
2023/07/21 10:44:07;;;;;;;1.87;1.77;;;23.50;69.70;;;;;;5078692;28;43416;-72
2023/07/21 10:46:36;;;;;;;1.70;1.70;;;23.50;69.70;;;;;;5058789;28;45338;-74
2023/07/21 10:49:06;;;;;;;1.60;1.60;;;23.50;69.70;;;;;;5075061;28;43383;-73
2023/07/21 10:51:34;;;;;;;1.80;1.80;;;23.50;69.80;;;;;;5081225;28;44685;-74
2023/07/21 10:54:02;;;;;;;1.50;1.50;;;23.50;70.30;;;;;;5070773;28;43394;-73
2023/07/21 10:56:30;;;;;;;1.80;1.80;;;23.50;70.00;;;;;;5069973;28;43630;-74
2023/07/21 10:58:58;;;;;;;1.70;1.70;;;23.50;69.60;;;;;;5063014;28;44721;-74
2023/07/21 11:01:26;;;;;;;1.60;1.60;;;23.60;69.50;;;;;;5061840;28;43424;-73
2023/07/21 11:03:55;;;;;;;1.80;1.80;;;23.60;69.50;;;;;;5085783;28;43443;-74
2023/07/21 11:06:24;;;;;;;1.60;1.60;;;23.60;69.70;;;;;;5069437;28;45680;-74
2023/07/21 11:08:52;;;;;;;1.57;1.57;;;23.50;69.60;;;;;;5056610;28;43383;-73
2023/07/21 11:11:21;;;;;;;1.30;1.30;;;23.50;69.60;;;;;;5076804;28;43348;-74
2023/07/21 11:13:49;;;;;;;1.53;1.53;;;23.50;69.60;;;;;;5057700;28;43542;-74
2023/07/21 11:16:17;;;;;;;1.40;1.40;;;23.50;69.60;;;;;;5053955;28;44164;-73
2023/07/21 11:18:46;;;;;;;1.70;1.70;;;23.50;70.20;;;;;;5081037;28;43510;-73
2023/07/21 11:21:14;;;;;;;1.57;1.57;;;23.40;70.00;;;;;;5084400;28;43396;-73
2023/07/21 11:23:43;;;;;;;1.70;1.70;;;23.40;70.00;;;;;;5079149;28;43431;-73
2023/07/21 11:26:11;;;;;;;1.43;1.43;;;23.40;69.80;;;;;;5064681;28;45701;-73
2023/07/21 11:28:40;;;;;;;1.80;1.80;;;23.40;70.30;;;;;;5067921;28;45167;-74
2023/07/21 11:31:11;;;;;;;1.50;1.50;;;23.40;70.40;;;;;;5081850;28;43328;-73
2023/07/21 11:33:41;;;;;;;1.63;1.63;;;23.40;70.00;;;;;;5081451;28;43388;-73
2023/07/21 11:36:16;;;;;;;1.60;1.60;;;23.50;69.70;;;;;;5063726;28;45694;-73
2023/07/21 11:38:57;;;;;;;1.50;1.50;;;23.60;69.50;;;;;;5061182;28;44376;-73
2023/07/21 11:41:45;;;;;;;1.40;1.40;;;23.70;69.30;;;;;;5079658;28;43447;-72
2023/07/21 11:44:17;;;;;;;1.50;1.50;;;23.60;69.20;;;;;;5082853;28;43315;-72
2023/07/21 11:46:59;;;;;;;1.70;1.70;;;23.60;69.20;;;;;;5065660;28;43707;-73
2023/07/21 11:49:28;;;;;;;1.47;1.47;;;23.50;69.60;;;;;;5077408;28;43524;-72
2023/07/21 11:51:58;;;;;;;1.50;1.50;;;23.50;69.60;;;;;;5084866;28;43557;-74
2023/07/21 11:54:28;;;;;;;1.60;1.60;;;23.50;69.70;;;;;;5074782;28;43450;-73
2023/07/21 11:56:58;;;;;;;1.30;1.30;;;23.50;69.60;;;;;;5067892;28;43830;-73
2023/07/21 11:59:26;;;;;;;1.43;1.43;;;23.40;70.10;;;;;;5063046;28;44949;-74
2023/07/21 12:01:55;;;;;;;1.57;1.57;;;23.40;70.20;;;;;;5061935;28;43566;-72
2023/07/21 12:04:23;;;;;;;1.50;1.50;;;23.40;70.20;;;;;;5084918;28;43767;-73
2023/07/21 12:06:55;;;;;;;1.67;1.67;;;23.40;70.00;;;;;;5074444;28;43599;-73
2023/07/21 12:09:23;;;;;;;1.50;1.50;;;23.30;70.20;;;;;;5068711;28;43391;-73
2023/07/21 12:11:53;;;;;;;1.50;1.50;;;23.30;70.60;;;;;;5073188;28;43460;-74
2023/07/21 12:14:23;;;;;;;1.47;1.47;;;23.40;70.30;;;;;;5068521;28;43312;-73
2023/07/21 12:16:53;;;;;;;1.40;1.40;;;23.50;69.90;;;;;;5051819;28;45970;-73
2023/07/21 12:19:21;;;;;;;1.53;1.53;;;23.60;69.60;;;;;;5075938;28;43450;-73
2023/07/21 12:21:51;;;;;;;1.37;1.37;;;23.70;69.30;;;;;;5067183;28;43412;-72
2023/07/21 12:24:19;;;;;;;1.50;1.50;;;23.70;69.30;;;;;;5071315;28;43404;-72
2023/07/21 12:26:47;;;;;;;1.50;1.50;;;23.60;69.20;;;;;;5066717;28;43850;-73
2023/07/21 12:29:17;;;;;;;1.30;1.30;;;23.60;69.60;;;;;;5060613;28;44711;-73
2023/07/21 12:32:06;;;;;;;1.40;1.40;;;23.50;69.50;;;;;;5057629;28;43475;-73
2023/07/21 12:34:35;;;;;;;1.30;1.30;;;23.50;69.60;;;;;;5081779;28;43340;-72
2023/07/21 12:37:03;;;;;;;1.80;1.80;;;23.50;69.60;;;;;;5077461;28;43710;-74
2023/07/21 12:39:31;;;;;;;1.70;1.60;;;23.40;70.00;;;;;;5060509;28;43366;-74
2023/07/21 12:41:59;;;;;;;1.30;1.30;;;23.40;70.00;;;;;;5057216;28;43540;-74
2023/07/21 12:44:29;;;;;;;1.73;1.63;;;23.40;70.00;;;;;;5074422;28;43485;-74
2023/07/21 12:46:57;;;;;;;1.50;1.50;;;23.40;69.90;;;;;;5067695;28;43762;-74
2023/07/21 12:49:25;;;;;;;1.67;1.50;;;23.30;69.90;;;;;;5070923;28;43372;-73
2023/07/21 12:51:52;;;;;;;1.40;1.40;;;23.30;70.30;;;;;;5068431;28;43483;-73
2023/07/21 12:54:20;;;;;;;1.70;1.70;;;23.40;70.20;;;;;;5052666;28;43460;-74
2023/07/21 12:56:48;;;;;;;1.43;1.43;;;23.50;69.80;;;;;;5051825;28;47427;-73
2023/07/21 12:59:16;;;;;;;1.67;1.63;;;23.50;69.50;;;;;;5085169;28;43460;-73
2023/07/21 13:01:46;;;;;;;2.30;1.50;;;23.60;69.10;;;;;;5060387;28;43459;-73